Time;durP1;ratioP1;P1;durP2;ratioP2;P2;SDS_P1;SDS_P2;PMS_P1;PMS_P2;Temp;Humidity;BMP_temperature;BMP_pressure;BME280_temperature;BME280_humidity;BME280_pressure;Samples;Min_cycle;Max_cycle;Signal;HPM_P1;HPM_P2
2023/01/16 00:00:30;;;;;;;4.93;0.77;;;4.30;99.90;;;;;;5032714;28;20571;-62
2023/01/16 00:02:56;;;;;;;7.00;0.70;;;4.30;99.90;;;;;;5033851;28;20072;-65
2023/01/16 00:05:22;;;;;;;6.20;0.75;;;4.40;99.90;;;;;;5032580;28;20044;-66
2023/01/16 00:07:47;;;;;;;3.83;0.45;;;4.50;99.90;;;;;;5033708;28;20049;-63
2023/01/16 00:10:13;;;;;;;2.00;0.55;;;4.50;99.90;;;;;;5032430;28;20017;-63
2023/01/16 00:12:38;;;;;;;4.70;0.50;;;4.50;99.90;;;;;;5032737;28;20021;-66
2023/01/16 00:15:05;;;;;;;2.58;0.52;;;4.60;99.90;;;;;;5033093;28;20028;-66
2023/01/16 00:17:30;;;;;;;2.13;0.40;;;4.60;99.90;;;;;;5031733;28;20025;-64
2023/01/16 00:19:56;;;;;;;3.00;0.60;;;4.60;99.90;;;;;;5033230;28;20509;-66
2023/01/16 00:22:21;;;;;;;3.92;0.50;;;4.60;99.90;;;;;;5034786;28;20029;-66
2023/01/16 00:24:47;;;;;;;3.00;0.57;;;4.60;99.90;;;;;;5032985;28;20387;-65
2023/01/16 00:27:13;;;;;;;4.95;0.63;;;4.60;99.90;;;;;;5015569;28;20092;-66
2023/01/16 00:29:38;;;;;;;2.90;0.65;;;4.60;99.90;;;;;;5013565;28;20057;-66
2023/01/16 00:32:04;;;;;;;2.25;0.50;;;4.70;99.90;;;;;;5013374;28;20029;-65
2023/01/16 00:34:29;;;;;;;1.75;0.60;;;4.60;99.90;;;;;;5032823;28;20018;-66
2023/01/16 00:36:55;;;;;;;4.82;0.50;;;4.70;99.90;;;;;;5033194;28;20476;-66
2023/01/16 00:39:21;;;;;;;2.17;0.52;;;4.60;99.90;;;;;;5033191;28;20025;-66
2023/01/16 00:41:46;;;;;;;1.60;0.30;;;4.60;99.90;;;;;;5033215;28;20049;-66
2023/01/16 00:44:12;;;;;;;1.75;0.40;;;4.50;99.90;;;;;;5032770;28;20029;-66
2023/01/16 00:46:38;;;;;;;4.05;0.38;;;4.40;99.90;;;;;;5032254;28;20025;-65
2023/01/16 00:49:03;;;;;;;4.60;0.73;;;4.40;99.90;;;;;;5032332;28;20104;-60
2023/01/16 00:51:29;;;;;;;1.77;0.40;;;4.30;99.90;;;;;;5048824;28;20044;-65
2023/01/16 00:53:54;;;;;;;1.88;0.40;;;4.40;99.90;;;;;;5044662;28;20052;-66
2023/01/16 00:56:20;;;;;;;0.85;0.40;;;4.30;99.90;;;;;;5037529;28;20022;-64
2023/01/16 00:58:46;;;;;;;2.58;0.63;;;4.30;99.90;;;;;;5037665;28;20021;-65
2023/01/16 01:01:11;;;;;;;4.18;0.60;;;4.30;99.90;;;;;;5036369;28;20028;-65
2023/01/16 01:03:37;;;;;;;4.47;0.43;;;4.30;99.90;;;;;;5018998;28;20026;-65
2023/01/16 01:06:07;;;;;;;2.47;0.60;;;4.20;99.90;;;;;;5036808;28;20026;-64
2023/01/16 01:08:33;;;;;;;5.05;0.65;;;4.10;99.90;;;;;;5037935;28;20049;-63
2023/01/16 01:11:06;;;;;;;3.08;0.40;;;4.20;99.90;;;;;;5037182;28;20036;-64
2023/01/16 01:13:32;;;;;;;3.30;1.10;;;4.00;99.90;;;;;;5036457;28;20061;-63
2023/01/16 01:15:57;;;;;;;4.75;0.65;;;5.00;99.90;;;;;;5037758;28;20029;-64
2023/01/16 01:18:23;;;;;;;3.85;0.50;;;3.90;99.90;;;;;;5038037;28;20446;-64
2023/01/16 01:20:49;;;;;;;2.78;0.47;;;3.80;99.90;;;;;;5038116;28;20486;-63
2023/01/16 01:23:14;;;;;;;9.52;1.00;;;3.90;99.90;;;;;;5038749;28;20033;-63
2023/01/16 01:25:40;;;;;;;3.85;0.80;;;3.80;99.90;;;;;;5040656;28;20037;-64
2023/01/16 01:28:05;;;;;;;1.10;0.50;;;3.80;99.90;;;;;;5041068;28;20083;-65
2023/01/16 01:30:31;;;;;;;8.23;0.80;;;3.60;99.90;;;;;;5040850;28;20037;-66
2023/01/16 01:32:56;;;;;;;1.25;0.40;;;3.50;99.90;;;;;;5040178;28;20085;-65
2023/01/16 01:35:22;;;;;;;1.45;0.57;;;3.50;99.90;;;;;;5040586;28;20480;-65
2023/01/16 01:37:48;;;;;;;3.45;0.40;;;3.40;99.90;;;;;;5039962;28;20026;-64
2023/01/16 01:40:13;;;;;;;1.70;0.47;;;3.50;99.90;;;;;;5038751;28;20109;-65
2023/01/16 01:42:43;;;;;;;2.30;0.40;;;3.40;99.90;;;;;;5038461;28;20017;-63
2023/01/16 01:45:15;;;;;;;2.45;0.47;;;3.40;99.90;;;;;;5021220;28;20045;-63
2023/01/16 01:48:04;;;;;;;5.72;0.50;;;3.30;99.90;;;;;;5039488;28;20025;-64
2023/01/16 01:50:40;;;;;;;2.55;0.43;;;3.20;99.90;;;;;;5038904;28;20034;-65
2023/01/16 01:53:29;;;;;;;1.42;0.38;;;3.30;99.90;;;;;;5038631;28;20026;-68
2023/01/16 01:56:00;;;;;;;1.38;0.47;;;3.20;99.90;;;;;;5036632;28;20089;-65
2023/01/16 01:58:28;;;;;;;3.80;0.60;;;3.40;99.90;;;;;;5018914;28;20029;-64
2023/01/16 02:00:57;;;;;;;1.58;0.50;;;3.40;99.90;;;;;;5036530;28;20025;-63
2023/01/16 02:03:29;;;;;;;2.67;0.50;;;3.40;99.90;;;;;;5036354;28;20372;-64
2023/01/16 02:05:58;;;;;;;6.57;0.50;;;3.50;99.90;;;;;;5037210;28;20103;-65
2023/01/16 02:08:29;;;;;;;2.80;0.38;;;3.50;99.90;;;;;;5036329;28;20041;-65
2023/01/16 02:11:08;;;;;;;5.78;0.68;;;3.70;99.90;;;;;;5050516;22;20020;-63
2023/01/16 02:13:37;;;;;;;1.50;0.30;;;3.70;99.90;;;;;;5032918;28;20520;-62
2023/01/16 02:22:01;;;;;;;4.50;0.50;;;3.70;99.90;;;;;;5033719;28;20123;-64
2023/01/16 02:24:45;;;;;;;2.35;0.43;;;3.70;99.90;;;;;;5032129;28;20029;-60
2023/01/16 02:27:28;;;;;;;1.77;0.40;;;3.70;99.90;;;;;;5033090;28;20021;-59
2023/01/16 02:30:12;;;;;;;3.22;0.50;;;3.70;99.90;;;;;;5033640;28;20094;-61
2023/01/16 02:32:52;;;;;;;3.42;0.65;;;3.70;99.90;;;;;;5031823;28;20022;-62
2023/01/16 02:35:39;;;;;;;2.97;0.47;;;3.70;99.90;;;;;;5033458;28;20105;-59
2023/01/16 02:38:15;;;;;;;6.22;0.38;;;3.80;99.90;;;;;;5032778;28;20022;-61
2023/01/16 02:41:16;;;;;;;5.53;0.57;;;3.80;99.90;;;;;;5032066;28;20029;-60
2023/01/16 02:44:04;;;;;;;6.10;0.50;;;3.90;99.90;;;;;;5007013;28;20091;-60
2023/01/16 02:46:33;;;;;;;8.43;0.60;;;3.90;99.90;;;;;;5013631;28;20045;-60
2023/01/16 02:49:07;;;;;;;2.30;0.50;;;3.90;99.90;;;;;;5028184;28;20563;-56
2023/01/16 02:51:49;;;;;;;3.90;0.55;;;4.00;99.90;;;;;;5033114;28;20033;-62
2023/01/16 02:54:28;;;;;;;3.50;0.70;;;4.00;99.90;;;;;;5012897;28;20506;-56
2023/01/16 02:57:03;;;;;;;10.38;2.97;;;4.00;99.90;;;;;;5012063;28;20034;-60
2023/01/16 02:59:29;;;;;;;6.63;3.25;;;3.90;99.90;;;;;;5033652;28;20052;-61
2023/01/16 03:01:56;;;;;;;3.95;1.90;;;3.90;99.90;;;;;;5038693;28;20033;-61
2023/01/16 03:04:45;;;;;;;3.97;1.30;;;3.80;99.90;;;;;;5032341;28;20384;-56
2023/01/16 03:07:37;;;;;;;1.25;0.50;;;3.80;99.90;;;;;;5032651;28;20021;-61
2023/01/16 03:10:40;;;;;;;3.47;0.73;;;3.80;99.90;;;;;;5032741;28;20033;-62
2023/01/16 03:13:14;;;;;;;4.78;0.90;;;3.80;99.90;;;;;;5032222;28;20033;-62
2023/01/16 03:15:58;;;;;;;2.38;0.60;;;3.80;99.90;;;;;;5031622;28;20576;-63
2023/01/16 03:18:33;;;;;;;2.20;0.40;;;3.80;99.90;;;;;;5032210;28;20511;-62
2023/01/16 03:21:11;;;;;;;1.30;0.50;;;4.00;99.90;;;;;;5032357;28;20068;-61
2023/01/16 03:23:53;;;;;;;4.03;0.45;;;3.80;99.90;;;;;;5032041;28;20057;-62
2023/01/16 03:26:28;;;;;;;1.45;0.50;;;3.80;99.90;;;;;;5032354;28;20487;-63
2023/01/16 03:29:12;;;;;;;1.75;0.50;;;3.80;99.90;;;;;;5032381;28;20029;-61
2023/01/16 03:31:41;;;;;;;4.55;0.82;;;3.70;99.90;;;;;;5030840;28;20036;-63
2023/01/16 03:34:34;;;;;;;1.27;0.40;;;3.70;99.90;;;;;;5031519;28;20598;-55
2023/01/16 03:37:41;;;;;;;1.27;0.50;;;3.70;99.90;;;;;;5032040;28;20029;-60
2023/01/16 03:40:11;;;;;;;1.73;0.60;;;3.60;99.90;;;;;;5031503;28;20022;-62
2023/01/16 03:42:43;;;;;;;1.23;0.47;;;3.50;99.90;;;;;;5031409;28;20028;-62
2023/01/16 03:45:19;;;;;;;0.95;0.60;;;3.40;99.90;;;;;;5031956;28;20029;-57
2023/01/16 03:47:57;;;;;;;1.58;0.50;;;3.60;99.90;;;;;;5030741;28;20026;-64
2023/01/16 03:50:25;;;;;;;1.33;0.70;;;3.30;99.90;;;;;;5031457;28;20095;-56
2023/01/16 03:52:54;;;;;;;2.08;0.55;;;3.30;99.90;;;;;;5031502;28;20057;-60
2023/01/16 03:55:35;;;;;;;2.25;0.60;;;3.40;99.90;;;;;;5031684;28;20026;-61
2023/01/16 03:58:08;;;;;;;2.85;0.77;;;3.40;99.90;;;;;;5031722;28;20040;-64
2023/01/16 04:00:49;;;;;;;4.80;0.65;;;3.40;99.90;;;;;;5050586;28;20032;-60
2023/01/16 04:03:40;;;;;;;5.47;0.50;;;3.50;99.90;;;;;;5051429;28;20033;-60
2023/01/16 04:06:23;;;;;;;6.38;0.63;;;3.50;99.90;;;;;;5040705;28;20044;-63
2023/01/16 04:08:52;;;;;;;1.42;0.60;;;3.50;99.90;;;;;;5015615;28;20037;-62
2023/01/16 04:11:20;;;;;;;3.58;1.00;;;3.40;99.90;;;;;;5031464;28;20033;-60
2023/01/16 04:13:50;;;;;;;6.68;0.60;;;3.40;99.90;;;;;;5029805;28;20026;-54
2023/01/16 04:16:17;;;;;;;6.90;0.70;;;3.40;99.90;;;;;;5031587;28;20049;-62
2023/01/16 04:18:45;;;;;;;2.15;0.82;;;3.40;99.90;;;;;;5031466;28;20506;-56
2023/01/16 04:21:10;;;;;;;2.20;0.60;;;3.20;99.90;;;;;;5046737;28;20467;-62
2023/01/16 04:23:36;;;;;;;3.63;0.50;;;3.30;99.90;;;;;;5030694;28;20109;-60
2023/01/16 04:26:02;;;;;;;2.05;0.68;;;3.20;99.90;;;;;;5031114;28;20032;-60
2023/01/16 04:28:28;;;;;;;4.78;0.47;;;3.20;99.90;;;;;;5031180;28;20045;-62
2023/01/16 04:30:54;;;;;;;4.35;1.08;;;3.20;99.90;;;;;;5031276;28;20105;-61
2023/01/16 04:33:19;;;;;;;2.22;0.50;;;3.10;99.90;;;;;;5030916;28;20435;-62
2023/01/16 04:35:45;;;;;;;1.95;0.70;;;3.10;99.90;;;;;;5031228;28;20029;-60
2023/01/16 04:38:12;;;;;;;4.20;0.82;;;3.00;99.90;;;;;;5031195;28;20025;-54
2023/01/16 04:40:37;;;;;;;7.63;0.70;;;3.10;99.90;;;;;;5030415;28;20078;-61
2023/01/16 04:43:03;;;;;;;1.83;0.60;;;3.10;99.90;;;;;;5030921;28;20029;-63
2023/01/16 04:45:29;;;;;;;4.93;0.75;;;3.10;99.90;;;;;;5030966;28;20029;-60
2023/01/16 04:47:55;;;;;;;1.83;0.70;;;3.00;99.90;;;;;;5031161;28;20033;-62
2023/01/16 04:50:21;;;;;;;2.83;0.93;;;3.00;99.90;;;;;;5031110;28;20049;-62
2023/01/16 04:52:47;;;;;;;2.17;1.00;;;2.90;99.90;;;;;;5030662;28;20017;-59
2023/01/16 04:55:13;;;;;;;8.90;0.90;;;2.90;99.90;;;;;;5030939;28;20053;-54
2023/01/16 04:57:39;;;;;;;3.72;1.00;;;2.80;99.90;;;;;;5030537;28;20513;-61
2023/01/16 05:00:06;;;;;;;7.50;0.95;;;2.90;99.90;;;;;;5046356;28;20032;-58
2023/01/16 05:02:32;;;;;;;7.78;1.10;;;2.90;99.90;;;;;;5050186;28;20079;-62
2023/01/16 05:04:57;;;;;;;6.38;1.10;;;2.80;99.90;;;;;;5050708;28;20456;-60
2023/01/16 05:07:26;;;;;;;6.97;1.00;;;2.90;99.90;;;;;;5050299;28;20763;-59
2023/01/16 05:09:52;;;;;;;1.45;0.57;;;3.00;99.90;;;;;;5050463;28;20025;-59
2023/01/16 05:12:17;;;;;;;1.67;0.50;;;3.00;99.90;;;;;;5049886;28;20167;-59
2023/01/16 05:14:43;;;;;;;4.45;1.20;;;3.10;99.90;;;;;;5031669;28;20091;-58
2023/01/16 05:17:08;;;;;;;3.05;1.00;;;3.10;99.90;;;;;;5021727;28;20033;-58
2023/01/16 05:19:34;;;;;;;6.53;1.00;;;3.10;99.90;;;;;;5016610;28;20440;-58
2023/01/16 05:22:00;;;;;;;7.00;1.10;;;3.10;99.90;;;;;;5009948;28;20048;-60
2023/01/16 05:24:25;;;;;;;4.35;0.90;;;3.00;99.90;;;;;;5017509;28;20065;-59
2023/01/16 05:26:51;;;;;;;5.03;0.88;;;3.10;99.90;;;;;;5017546;28;20057;-62
2023/01/16 05:29:16;;;;;;;2.53;0.77;;;3.10;99.90;;;;;;5014742;28;20047;-58
2023/01/16 05:31:42;;;;;;;6.82;1.90;;;3.10;99.90;;;;;;5026821;28;20021;-59
2023/01/16 05:34:09;;;;;;;7.75;1.27;;;3.20;99.90;;;;;;5024605;28;20018;-60
2023/01/16 05:36:35;;;;;;;2.70;0.80;;;3.20;99.90;;;;;;5016344;28;20018;-58
2023/01/16 05:39:01;;;;;;;4.85;0.90;;;3.20;99.90;;;;;;5015277;28;20496;-59
2023/01/16 05:41:26;;;;;;;4.05;0.70;;;3.30;99.90;;;;;;5025055;28;20453;-56
2023/01/16 05:43:52;;;;;;;8.27;1.13;;;3.30;99.90;;;;;;5012968;28;20105;-58
2023/01/16 05:46:18;;;;;;;5.10;1.00;;;3.30;99.90;;;;;;5021632;28;20025;-61
2023/01/16 05:48:43;;;;;;;4.45;0.88;;;3.30;99.90;;;;;;5019118;28;20026;-56
2023/01/16 05:51:11;;;;;;;8.90;1.15;;;3.30;99.90;;;;;;5015892;28;20025;-60
2023/01/16 05:53:37;;;;;;;2.88;0.70;;;3.40;99.90;;;;;;5025993;28;20033;-61
2023/01/16 05:56:09;;;;;;;2.30;0.70;;;3.40;99.90;;;;;;5036499;28;20040;-58
2023/01/16 05:58:35;;;;;;;2.80;0.88;;;3.30;99.90;;;;;;5026249;28;20171;-60
2023/01/16 06:01:01;;;;;;;3.08;0.90;;;3.30;99.90;;;;;;5035781;28;20152;-60
2023/01/16 06:03:27;;;;;;;4.88;1.10;;;3.30;99.90;;;;;;5027887;28;20049;-61
2023/01/16 06:05:53;;;;;;;4.00;0.95;;;3.20;99.90;;;;;;5013183;28;20021;-62
2023/01/16 06:08:18;;;;;;;4.55;1.25;;;3.20;99.90;;;;;;5021984;28;20014;-62
2023/01/16 06:10:45;;;;;;;2.50;1.00;;;3.20;99.90;;;;;;5019430;28;20036;-56
2023/01/16 06:13:11;;;;;;;7.28;1.00;;;3.60;99.90;;;;;;5014231;28;20026;-61
2023/01/16 06:15:37;;;;;;;2.67;0.80;;;3.10;99.90;;;;;;5024604;28;20029;-58
2023/01/16 06:18:03;;;;;;;3.53;1.20;;;3.20;99.90;;;;;;5013154;28;20021;-59
2023/01/16 06:20:29;;;;;;;2.75;0.70;;;3.20;99.90;;;;;;5028041;28;20029;-60
2023/01/16 06:22:54;;;;;;;3.65;0.90;;;3.20;99.90;;;;;;5015647;28;20119;-60
2023/01/16 06:25:20;;;;;;;6.63;0.80;;;3.20;99.90;;;;;;5024473;28;20154;-60
2023/01/16 06:27:49;;;;;;;7.70;0.95;;;3.20;99.90;;;;;;5011195;28;20504;-61
2023/01/16 06:30:15;;;;;;;4.82;0.90;;;3.20;99.90;;;;;;5021133;28;20476;-58
2023/01/16 06:32:41;;;;;;;6.53;2.40;;;3.10;99.90;;;;;;5018330;28;20032;-62
2023/01/16 06:35:07;;;;;;;2.88;1.10;;;3.10;99.90;;;;;;5020717;28;20025;-61
2023/01/16 06:37:33;;;;;;;4.22;1.40;;;3.10;99.90;;;;;;5026857;28;20088;-59
2023/01/16 06:39:59;;;;;;;4.40;0.98;;;3.10;99.90;;;;;;5012322;28;20033;-59
2023/01/16 06:42:25;;;;;;;7.50;1.67;;;3.10;99.90;;;;;;5018618;28;20105;-52
2023/01/16 06:44:51;;;;;;;3.13;1.08;;;3.10;99.90;;;;;;5019603;28;20125;-56
2023/01/16 06:47:17;;;;;;;13.35;2.80;;;3.10;99.90;;;;;;5024143;28;20387;-61
2023/01/16 06:49:42;;;;;;;8.05;1.50;;;3.10;99.90;;;;;;5010823;28;20022;-62
2023/01/16 06:52:08;;;;;;;2.90;0.98;;;3.10;99.90;;;;;;5027259;28;20091;-60
2023/01/16 06:54:34;;;;;;;9.40;1.10;;;3.20;99.90;;;;;;5026612;28;20450;-55
2023/01/16 06:56:59;;;;;;;3.42;1.13;;;3.10;99.90;;;;;;5013726;28;20408;-59
2023/01/16 06:59:25;;;;;;;5.20;1.17;;;3.10;99.90;;;;;;5033444;28;20021;-57
2023/01/16 07:01:51;;;;;;;10.43;1.10;;;3.10;99.90;;;;;;5023755;28;20125;-57
2023/01/16 07:04:16;;;;;;;11.05;1.27;;;3.10;99.90;;;;;;5022823;28;20033;-59
2023/01/16 07:06:43;;;;;;;11.63;1.83;;;3.10;99.90;;;;;;5018204;28;20072;-61
2023/01/16 07:09:09;;;;;;;6.32;0.98;;;3.10;99.90;;;;;;5022698;28;20373;-62
2023/01/16 07:11:35;;;;;;;8.25;1.63;;;3.10;99.90;;;;;;5012564;28;20265;-61
2023/01/16 07:25:00;;;;;;;5.32;1.00;;;3.00;99.90;;;;;;5027366;28;20041;-55
2023/01/16 07:27:26;;;;;;;4.60;1.60;;;3.10;99.90;;;;;;5011403;28;20576;-63
2023/01/16 07:29:52;;;;;;;4.60;1.40;;;3.00;99.90;;;;;;5013662;28;20120;-62
2023/01/16 07:32:18;;;;;;;8.30;1.42;;;3.00;99.90;;;;;;5017555;28;20022;-63
2023/01/16 07:34:44;;;;;;;12.02;2.00;;;3.00;99.90;;;;;;5017976;28;20130;-62
2023/01/16 07:37:10;;;;;;;4.40;1.17;;;2.90;99.90;;;;;;5013391;28;20029;-62
2023/01/16 07:39:36;;;;;;;3.50;0.93;;;2.90;99.90;;;;;;5025006;28;20078;-58
2023/01/16 07:42:04;;;;;;;7.32;1.60;;;2.90;99.90;;;;;;5012613;28;20029;-61
2023/01/16 07:44:29;;;;;;;6.38;1.42;;;2.80;99.90;;;;;;5018224;28;20033;-63
2023/01/16 07:46:56;;;;;;;3.47;1.15;;;2.70;99.90;;;;;;5023380;28;20068;-59
2023/01/16 07:49:22;;;;;;;2.13;1.10;;;2.70;99.90;;;;;;5012030;28;20515;-57
2023/01/16 07:51:47;;;;;;;4.22;1.23;;;2.70;99.90;;;;;;5022658;28;20033;-62
2023/01/16 07:54:13;;;;;;;2.55;1.02;;;2.80;99.90;;;;;;5010105;28;20049;-58
2023/01/16 07:56:39;;;;;;;11.65;1.75;;;2.80;99.90;;;;;;5021286;28;20021;-61
2023/01/16 07:59:05;;;;;;;9.23;1.20;;;2.90;99.90;;;;;;5012662;28;20500;-60
2023/01/16 08:01:31;;;;;;;8.05;1.52;;;2.90;99.90;;;;;;5035329;28;20119;-58
2023/01/16 08:03:57;;;;;;;6.07;1.27;;;2.90;99.90;;;;;;5021599;28;20125;-60
2023/01/16 08:06:23;;;;;;;3.30;1.25;;;3.00;99.90;;;;;;5013899;28;20029;-55
2023/01/16 08:08:48;;;;;;;6.88;1.15;;;3.10;99.90;;;;;;5019274;28;20033;-55
2023/01/16 08:13:58;;;;;;;10.40;1.40;;;3.20;99.90;;;;;;5071517;28;20180;-66
2023/01/16 08:16:24;;;;;;;7.25;1.83;;;3.30;99.90;;;;;;5086437;28;20028;-64
2023/01/16 08:18:49;;;;;;;4.97;1.30;;;3.30;99.90;;;;;;5086941;28;20146;-64
2023/01/16 08:21:16;;;;;;;8.00;1.40;;;3.40;99.90;;;;;;5087141;28;20043;-63
2023/01/16 08:23:42;;;;;;;6.05;2.08;;;3.40;99.90;;;;;;5086628;28;20418;-64
2023/01/16 08:26:09;;;;;;;7.25;0.80;;;3.50;99.90;;;;;;5093711;28;20043;-68
2023/01/16 08:28:35;;;;;;;5.93;1.20;;;3.60;99.90;;;;;;5082844;28;20217;-66
2023/01/16 08:31:07;;;;;;;2.58;1.40;;;3.60;99.90;;;;;;5088597;28;20496;-68
2023/01/16 08:33:35;;;;;;;4.03;0.98;;;3.60;99.90;;;;;;5086954;28;20016;-62
2023/01/16 08:36:02;;;;;;;3.65;0.95;;;3.60;99.90;;;;;;5073453;28;20479;-65
2023/01/16 08:38:28;;;;;;;5.20;1.00;;;3.70;99.90;;;;;;5085016;28;20054;-69
2023/01/16 08:40:53;;;;;;;9.50;2.75;;;3.80;99.90;;;;;;5089377;28;20032;-63
2023/01/16 08:51:33;;;;;;;15.82;0.80;;;3.80;99.90;;;;;;5086443;28;20067;-65
2023/01/16 08:53:59;;;;;;;4.40;0.85;;;3.70;99.90;;;;;;5086270;28;20024;-62
2023/01/16 08:56:24;;;;;;;10.98;1.10;;;3.60;99.90;;;;;;5086394;28;20072;-66
2023/01/16 08:58:50;;;;;;;2.72;0.70;;;3.60;99.90;;;;;;5085266;28;20058;-63
2023/01/16 09:01:16;;;;;;;5.93;1.30;;;4.00;99.90;;;;;;5085753;28;20134;-62
2023/01/16 09:03:43;;;;;;;12.93;1.50;;;3.50;99.90;;;;;;5085656;28;20494;-65
2023/01/16 09:06:08;;;;;;;7.00;2.92;;;3.50;99.90;;;;;;5082723;28;20028;-62
2023/01/16 09:08:34;;;;;;;6.78;1.40;;;3.50;99.90;;;;;;5086825;28;20352;-66
2023/01/16 09:13:49;;;;;;;17.38;0.82;;;3.50;99.90;;;;;;5084767;28;20051;-64
2023/01/16 09:16:24;;;;;;;5.38;1.23;;;3.50;99.90;;;;;;5085314;28;20028;-62
2023/01/16 09:18:50;;;;;;;5.25;1.00;;;3.40;99.90;;;;;;5085084;28;20044;-63
2023/01/16 09:21:19;;;;;;;7.72;1.35;;;3.40;99.90;;;;;;5090023;28;20405;-64
2023/01/16 09:23:45;;;;;;;17.58;1.63;;;3.40;99.90;;;;;;5089555;28;20512;-63
2023/01/16 09:26:11;;;;;;;7.03;1.20;;;3.30;99.90;;;;;;5089596;28;20606;-65
2023/01/16 09:28:37;;;;;;;15.95;1.50;;;3.30;99.90;;;;;;5089453;28;20504;-67
2023/01/16 09:31:03;;;;;;;13.98;1.35;;;3.40;99.90;;;;;;5071412;28;20020;-64
2023/01/16 09:33:28;;;;;;;8.07;1.40;;;3.40;99.90;;;;;;5090088;28;20020;-61
2023/01/16 09:35:54;;;;;;;9.65;1.88;;;3.40;99.90;;;;;;5091040;28;20096;-66
2023/01/16 09:38:20;;;;;;;5.68;0.98;;;3.30;99.90;;;;;;5101905;28;20476;-63
2023/01/16 09:40:49;;;;;;;10.00;1.35;;;3.30;99.90;;;;;;5089773;28;20040;-66
2023/01/16 09:46:01;;;;;;;4.25;1.17;;;3.30;99.90;;;;;;5088446;28;20051;-61
2023/01/16 09:48:30;;;;;;;8.65;1.13;;;3.30;99.90;;;;;;5089210;28;20020;-65
2023/01/16 09:51:11;;;;;;;2.35;1.00;;;3.40;99.90;;;;;;5086823;28;20013;-65
2023/01/16 09:59:40;;;;;;;2.63;0.93;;;3.50;99.90;;;;;;5090570;28;20546;-68
2023/01/16 10:02:32;;;;;;;4.18;1.00;;;3.50;99.90;;;;;;5078915;28;20047;-62
2023/01/16 10:04:59;;;;;;;7.35;1.33;;;3.60;99.90;;;;;;5094183;28;20038;-64
2023/01/16 10:07:43;;;;;;;8.75;1.35;;;3.70;99.90;;;;;;5088398;28;20724;-66
2023/01/16 10:10:44;;;;;;;2.78;0.75;;;3.90;99.90;;;;;;5082274;28;20512;-68
2023/01/16 10:13:33;;;;;;;9.65;1.38;;;3.90;99.90;;;;;;5089142;28;20032;-65
2023/01/16 10:16:12;;;;;;;7.32;1.10;;;4.00;99.90;;;;;;5069796;28;20127;-61
2023/01/16 10:19:05;;;;;;;9.88;0.75;;;4.10;99.90;;;;;;5087416;28;20077;-62
2023/01/16 10:21:56;;;;;;;4.50;0.80;;;4.10;99.90;;;;;;5088570;28;20024;-63
2023/01/16 10:24:34;;;;;;;4.60;0.80;;;4.20;99.90;;;;;;5089392;28;20109;-65
2023/01/16 10:27:19;;;;;;;9.05;0.90;;;4.20;99.90;;;;;;5074022;28;20114;-60
2023/01/16 10:29:54;;;;;;;2.25;0.90;;;4.30;99.90;;;;;;5088187;28;20047;-62
2023/01/16 10:32:32;;;;;;;3.50;0.90;;;4.30;99.90;;;;;;5089692;28;20059;-59
2023/01/16 10:35:15;;;;;;;4.65;0.80;;;4.30;99.90;;;;;;5088024;28;20119;-58
2023/01/16 10:37:43;;;;;;;5.45;0.90;;;4.40;99.90;;;;;;5087977;28;20103;-60
2023/01/16 10:40:13;;;;;;;1.98;0.80;;;4.50;99.90;;;;;;5088428;28;20452;-60
2023/01/16 10:51:02;;;;;;;2.67;0.90;;;4.90;99.90;;;;;;5091804;28;20023;-66
2023/01/16 10:53:28;;;;;;;3.67;0.70;;;4.60;99.90;;;;;;5087433;28;20024;-66
2023/01/16 10:55:55;;;;;;;4.00;1.00;;;4.60;99.90;;;;;;5091843;28;20053;-64
2023/01/16 10:58:35;;;;;;;3.50;0.90;;;4.80;99.90;;;;;;5088793;28;20020;-66
2023/01/16 11:01:13;;;;;;;2.83;1.10;;;4.80;99.90;;;;;;5087618;28;20523;-65
2023/01/16 11:03:46;;;;;;;2.47;0.88;;;4.90;99.90;;;;;;5082817;28;20092;-65
2023/01/16 11:06:20;;;;;;;4.32;1.10;;;4.90;99.90;;;;;;5081001;28;20048;-67
2023/01/16 11:08:53;;;;;;;3.42;0.90;;;4.90;99.90;;;;;;5092568;28;20028;-67
2023/01/16 11:20:19;;;;;;;1.88;0.60;;;5.60;99.90;;;;;;5070980;28;20055;-67
2023/01/16 11:22:49;;;;;;;4.03;0.70;;;5.70;99.90;;;;;;5086838;28;20031;-64
2023/01/16 11:25:20;;;;;;;3.00;0.70;;;5.80;99.90;;;;;;5074219;28;20032;-65
2023/01/16 11:27:49;;;;;;;6.68;0.70;;;6.00;99.90;;;;;;5084053;28;20410;-66
2023/01/16 11:30:21;;;;;;;4.57;0.70;;;6.30;99.90;;;;;;5079410;28;20092;-66
2023/01/16 11:32:49;;;;;;;7.15;0.90;;;6.60;99.90;;;;;;5085912;28;20592;-61
2023/01/16 11:35:17;;;;;;;4.47;1.02;;;6.80;99.90;;;;;;5078548;28;20032;-67
2023/01/16 11:37:48;;;;;;;4.50;0.93;;;7.10;99.90;;;;;;5088541;28;20100;-66
2023/01/16 11:40:22;;;;;;;2.45;0.65;;;7.30;99.90;;;;;;5080066;28;20035;-66
2023/01/16 11:46:02;;;;;;;9.57;0.93;;;7.60;99.90;;;;;;5087762;28;20054;-67
2023/01/16 11:48:40;;;;;;;14.10;1.00;;;7.50;99.90;;;;;;5082160;28;20016;-66
2023/01/16 11:51:10;;;;;;;13.07;0.70;;;7.50;99.90;;;;;;5087848;28;20051;-63
2023/01/16 11:53:36;;;;;;;5.10;0.55;;;7.60;99.90;;;;;;5087760;28;20035;-67
2023/01/16 11:56:14;;;;;;;8.27;1.20;;;7.70;99.90;;;;;;5088394;28;20055;-65
2023/01/16 11:58:45;;;;;;;2.78;0.50;;;7.70;99.90;;;;;;5089166;28;20115;-64
2023/01/16 12:01:20;;;;;;;1.50;0.60;;;9.70;99.90;;;;;;5090821;28;20089;-61
2023/01/16 12:04:12;;;;;;;10.00;0.70;;;7.90;99.90;;;;;;5093403;28;20043;-63
2023/01/16 12:06:38;;;;;;;5.75;0.52;;;7.70;99.90;;;;;;5101585;28;20040;-66
2023/01/16 12:09:44;;;;;;;2.55;0.85;;;7.70;99.90;;;;;;5097500;28;20084;-60
2023/01/16 12:15:36;;;;;;;16.05;1.58;;;7.40;99.90;;;;;;5079444;28;20111;-66
2023/01/16 12:18:05;;;;;;;1.83;0.60;;;7.50;99.90;;;;;;5085526;28;20039;-62
2023/01/16 12:20:40;;;;;;;3.13;0.50;;;7.60;99.90;;;;;;5087802;28;20024;-60
2023/01/16 12:23:26;;;;;;;3.00;0.80;;;7.50;99.90;;;;;;5081143;28;20020;-65
2023/01/16 12:25:58;;;;;;;1.75;0.52;;;7.60;99.90;;;;;;5085076;28;20028;-60
2023/01/16 12:28:31;;;;;;;2.38;0.43;;;7.60;99.90;;;;;;5082657;28;20038;-62
2023/01/16 12:31:07;;;;;;;5.53;0.80;;;7.60;99.90;;;;;;5084277;28;20040;-64
2023/01/16 12:33:44;;;;;;;4.93;1.60;;;7.70;99.90;;;;;;5081849;28;20015;-64
2023/01/16 12:36:46;;;;;;;16.33;1.90;;;7.70;99.90;;;;;;5069118;28;20406;-65
2023/01/16 12:39:40;;;;;;;10.32;1.10;;;7.80;99.90;;;;;;5039597;28;20036;-64
2023/01/16 12:45:19;;;;;;;32.67;1.90;;;7.80;99.90;;;;;;5085825;28;20099;-65
2023/01/16 12:47:57;;;;;;;16.05;1.52;;;7.80;99.90;;;;;;5076150;28;20174;-65
2023/01/16 12:50:41;;;;;;;17.63;1.25;;;7.80;99.90;;;;;;5091063;28;20365;-66
2023/01/16 12:53:25;;;;;;;3.92;1.05;;;8.00;99.90;;;;;;5094396;28;20035;-65
2023/01/16 12:56:13;;;;;;;13.98;1.77;;;8.00;99.90;;;;;;5096240;28;20046;-63
2023/01/16 12:58:44;;;;;;;6.97;0.90;;;8.10;99.90;;;;;;5093112;28;20067;-64
2023/01/16 13:01:20;;;;;;;4.40;1.17;;;8.10;99.90;;;;;;5087288;28;20036;-66
2023/01/16 13:04:06;;;;;;;4.28;0.80;;;8.20;99.90;;;;;;5089365;28;20029;-65
2023/01/16 13:07:07;;;;;;;9.57;1.00;;;8.10;99.90;;;;;;5086637;28;20036;-65
2023/01/16 13:15:41;;;;;;;3.10;1.17;;;7.90;99.90;;;;;;5085474;28;20027;-62
2023/01/16 13:18:38;;;;;;;6.22;0.93;;;7.80;99.90;;;;;;5071339;28;20036;-62
2023/01/16 13:21:08;;;;;;;7.32;1.10;;;7.70;99.90;;;;;;5093557;28;20030;-66
2023/01/16 13:23:42;;;;;;;3.85;1.17;;;7.60;99.90;;;;;;5094777;28;20024;-60
2023/01/16 13:26:13;;;;;;;9.70;1.57;;;7.60;99.90;;;;;;5094707;28;20040;-64
2023/01/16 13:28:55;;;;;;;3.08;1.40;;;7.60;99.90;;;;;;5093477;28;21124;-61
2023/01/16 13:31:30;;;;;;;5.72;1.35;;;7.70;99.90;;;;;;5060288;28;20051;-65
2023/01/16 13:34:23;;;;;;;19.02;3.08;;;7.80;99.90;;;;;;5082779;28;20053;-66
2023/01/16 13:37:06;;;;;;;13.10;1.10;;;7.90;99.90;;;;;;5091160;28;20055;-64
2023/01/16 13:39:32;;;;;;;10.85;1.83;;;7.90;99.90;;;;;;5092154;28;20028;-64
2023/01/16 13:41:59;;;;;;;11.98;1.10;;;7.80;99.90;;;;;;5094186;28;20051;-59
2023/01/16 13:47:19;;;;;;;6.03;0.85;;;7.60;99.90;;;;;;5093376;28;20166;-61
2023/01/16 13:49:52;;;;;;;5.15;0.88;;;7.60;99.90;;;;;;5098505;28;20111;-67
2023/01/16 13:52:28;;;;;;;13.13;0.93;;;7.20;99.90;;;;;;5092540;28;20058;-63
2023/01/16 13:54:57;;;;;;;2.17;0.68;;;7.40;99.90;;;;;;5075077;28;20647;-61
2023/01/16 13:57:26;;;;;;;3.45;0.52;;;7.40;99.90;;;;;;5092164;28;20078;-65
2023/01/16 13:59:55;;;;;;;5.45;0.75;;;7.30;99.90;;;;;;5087584;28;20039;-65
2023/01/16 14:02:43;;;;;;;1.90;0.70;;;7.30;99.90;;;;;;5088382;28;20036;-66
2023/01/16 14:05:42;;;;;;;6.75;1.42;;;7.20;99.90;;;;;;5088839;28;20028;-61
2023/01/16 14:11:14;;;;;;;3.67;1.10;;;7.00;99.90;;;;;;5094405;28;20035;-59
2023/01/16 14:13:40;;;;;;;2.33;1.02;;;7.00;99.90;;;;;;5120801;22;20048;-64
2023/01/16 14:18:56;;;;;;;5.93;0.70;;;6.80;99.90;;;;;;5082883;28;20047;-66
2023/01/16 14:21:27;;;;;;;4.72;0.93;;;6.80;99.90;;;;;;5070452;28;20024;-66
2023/01/16 14:24:05;;;;;;;3.15;0.90;;;6.70;99.90;;;;;;5060051;28;20029;-65
2023/01/16 14:26:37;;;;;;;24.73;1.85;;;6.60;99.90;;;;;;5058624;28;20055;-63
2023/01/16 14:29:26;;;;;;;8.38;1.45;;;6.60;99.90;;;;;;5066229;28;20025;-63
2023/01/16 14:32:01;;;;;;;3.40;1.15;;;6.50;99.90;;;;;;5055741;28;20029;-66
2023/01/16 14:34:35;;;;;;;5.32;1.17;;;6.40;99.90;;;;;;5057112;28;20048;-67
2023/01/16 14:37:05;;;;;;;29.92;1.75;;;6.40;99.90;;;;;;5062972;28;20086;-65